CheckWX is a tool to help pilots better visualize weather data.  It is not intended as a substitute for an official pre-flight weather briefing.

02:10:18 UTC

EDQM METAR
Hof-Plauen Airport
Hof, Germany
Current

8 hours ago

EDQM 191750Z 25003KT CAVOK 17/16 Q1016
Observed
Jul-19 @ 17:50 UTC
Wind
  • 250° at 3 KTS
Visibility
10,000+ meters
Flight Rules
VFR
Cloud Levels
  • Clear skies
Temperature
17°C / 63°F
Dewpoint
16°C / 61°F
Humidity
94%
Altimeter
30" Hg
Pressure
1015.92 hPa
Previous

9 hours ago

EDQM 191720Z 25004KT CAVOK 17/15 Q1017
Observed
Jul-19 @ 17:20 UTC
Wind
  • 250° at 4 KTS
Visibility
10,000+ meters
Flight Rules
VFR
Cloud Levels
  • Clear skies
Temperature
17°C / 63°F
Dewpoint
15°C / 59°F
Humidity
88%
Altimeter
30.03" Hg
Pressure
1016.92 hPa
Previous

9 hours ago

EDQM 191650Z 27005KT 9999 FEW035 SCT062 BKN084 17/15 Q1017
Observed
Jul-19 @ 16:50 UTC
Wind
  • 270° at 5 KTS
Visibility
10,000+ meters
Flight Rules
VFR
Cloud Levels
  • Few at 3,500' AGL
  • Scattered at 6,200' AGL
  • Broken at 8,400' AGL
Temperature
17°C / 63°F
Dewpoint
15°C / 59°F
Humidity
88%
Altimeter
30.03" Hg
Pressure
1016.92 hPa